createdAt,value
2022-10-05T00:07:16.688Z,19.8
2022-10-05T00:17:25.374Z,19.8
2022-10-05T00:27:32.799Z,19.7
2022-10-05T00:37:40.270Z,19.5
2022-10-05T00:47:47.802Z,19.4
2022-10-05T00:57:55.212Z,19.2
2022-10-05T01:08:02.738Z,19.1
2022-10-05T01:18:10.280Z,19
2022-10-05T01:28:17.851Z,18.9
2022-10-05T01:38:25.376Z,18.9
2022-10-05T01:48:32.922Z,18.6
2022-10-05T01:58:40.365Z,18.8
2022-10-05T02:08:47.810Z,18.9
2022-10-05T02:18:55.379Z,19.2
2022-10-05T02:29:02.852Z,19.2
2022-10-05T02:39:10.415Z,19
2022-10-05T02:49:17.965Z,19
2022-10-05T02:59:25.534Z,18.8
2022-10-05T03:09:32.943Z,18.7
2022-10-05T03:19:40.488Z,18.7
2022-10-05T03:29:48.195Z,18.7
2022-10-05T03:39:55.788Z,18.5
2022-10-05T03:50:03.287Z,18.3
2022-10-05T04:00:10.850Z,18
2022-10-05T04:10:18.370Z,17.9
2022-10-05T04:20:25.948Z,17.7
2022-10-05T04:30:33.517Z,17.7
2022-10-05T04:40:40.998Z,17.6
2022-10-05T04:50:49.750Z,17.5
2022-10-05T05:00:57.303Z,17.6
2022-10-05T05:11:04.802Z,17.5
2022-10-05T05:21:10.895Z,17.5
2022-10-05T05:31:18.570Z,17.5
2022-10-05T05:41:26.059Z,17.4
2022-10-05T05:51:33.588Z,17.4
2022-10-05T06:01:44.418Z,17.8
2022-10-05T06:11:48.982Z,17.9
2022-10-05T06:21:56.701Z,17.6
2022-10-05T06:32:04.262Z,17.4
2022-10-05T06:42:11.819Z,17.3
2022-10-05T06:52:19.243Z,17.5
2022-10-05T07:02:26.926Z,17.9
2022-10-05T07:12:34.460Z,17.9
2022-10-05T07:22:42.034Z,18.1
2022-10-05T07:32:49.594Z,18.1
2022-10-05T07:42:57.246Z,18.2
2022-10-05T07:53:04.887Z,18.7
2022-10-05T08:03:12.504Z,20.2
2022-10-05T08:13:20.071Z,21.7
2022-10-05T08:23:27.567Z,22.4
2022-10-05T08:33:35.178Z,23.5
2022-10-05T08:43:42.714Z,23.8
2022-10-05T08:53:50.306Z,23.8
2022-10-05T09:03:57.882Z,24.1
2022-10-05T09:14:05.726Z,24.8
2022-10-05T09:24:13.300Z,25.5
2022-10-05T09:34:20.877Z,26.3
2022-10-05T09:44:28.634Z,26.6
2022-10-05T09:54:36.218Z,27.2
2022-10-05T10:04:44.818Z,26.7
2022-10-05T10:34:56.942Z,27.5
2022-10-05T11:25:13.543Z,26.7
2022-10-05T11:35:21.032Z,26.7
2022-10-05T11:45:28.614Z,26.5
2022-10-05T11:55:36.236Z,26.6
2022-10-05T12:05:43.714Z,26.8
2022-10-05T12:25:53.523Z,26.5
2022-10-05T12:36:01.359Z,26.5
2022-10-05T12:46:09.449Z,26
2022-10-05T12:56:17.035Z,26.4
2022-10-05T13:06:24.825Z,26.9
2022-10-05T13:16:24.983Z,26.6
2022-10-05T13:26:32.463Z,26.4
2022-10-05T13:36:39.965Z,26
2022-10-05T13:46:47.574Z,26.1
2022-10-05T13:56:55.200Z,26.7
2022-10-05T14:07:02.735Z,26.5
2022-10-05T14:17:10.362Z,26.3
2022-10-05T14:27:17.914Z,25.7
2022-10-05T14:37:25.407Z,25.7
2022-10-05T14:47:32.965Z,25.9
2022-10-05T14:57:40.580Z,26
2022-10-05T15:07:48.279Z,26.2
2022-10-05T15:17:55.812Z,25.4
2022-10-05T15:28:03.363Z,25.3
2022-10-05T15:38:10.932Z,25.2
2022-10-05T15:48:18.023Z,25.3
2022-10-05T15:58:25.808Z,25.4
2022-10-05T16:08:33.257Z,25.5
2022-10-05T16:18:41.436Z,25.5
2022-10-05T16:28:49.153Z,25.3
2022-10-05T16:38:57.051Z,25
2022-10-05T16:49:04.653Z,24.8
2022-10-05T16:59:12.310Z,24.8
2022-10-05T17:09:21.438Z,24.8
2022-10-05T17:19:29.114Z,24.5
2022-10-05T17:29:36.727Z,24.4
2022-10-05T17:39:44.207Z,24.3
2022-10-05T17:49:53.160Z,24.4
2022-10-05T18:00:02.149Z,24.3
2022-10-05T18:10:10.646Z,24.4
2022-10-05T18:20:18.306Z,24.3
2022-10-05T18:30:26.153Z,23.9
2022-10-05T18:40:35.116Z,23.8
2022-10-05T18:50:42.714Z,23.7
2022-10-05T19:00:50.552Z,23.7
2022-10-05T19:10:58.278Z,23.1
2022-10-05T19:21:06.984Z,23.1
2022-10-05T19:31:14.667Z,23
2022-10-05T19:41:22.194Z,22.9
2022-10-05T19:51:29.766Z,22.5
2022-10-05T20:01:37.312Z,22.5
2022-10-05T20:11:44.834Z,22.5
2022-10-05T20:21:52.431Z,22.5
2022-10-05T20:32:00.157Z,22.4
2022-10-05T20:42:07.801Z,22.4
2022-10-05T20:52:15.502Z,22.2
2022-10-05T21:02:23.362Z,22.1
2022-10-05T21:12:31.413Z,21.9
2022-10-05T21:22:38.971Z,21.8
2022-10-05T21:32:46.579Z,21.8
2022-10-05T21:42:53.824Z,21.7
2022-10-05T21:53:01.473Z,21.6
2022-10-05T22:03:09.102Z,21.5
2022-10-05T22:13:16.752Z,21.5
2022-10-05T22:23:24.506Z,21.4
2022-10-05T22:33:34.239Z,21.3
2022-10-05T22:43:43.290Z,21.1
2022-10-05T22:53:50.741Z,20.9
2022-10-05T23:03:58.431Z,20.9
2022-10-05T23:14:05.909Z,20.8
2022-10-05T23:24:13.322Z,20.9
2022-10-05T23:34:20.806Z,21
2022-10-05T23:44:28.389Z,20.8
2022-10-05T23:54:35.994Z,20.3
